sensor_id;sensor_type;location;lat;lon;timestamp;temperature;humidity
14749;DHT22;7466;53.574;9.976;2023-04-03T00:00:49;0.90;99.90
14749;DHT22;7466;53.574;9.976;2023-04-03T00:03:16;0.90;99.90
14749;DHT22;7466;53.574;9.976;2023-04-03T00:05:43;0.80;99.90
14749;DHT22;7466;53.574;9.976;2023-04-03T00:08:10;0.80;99.90
14749;DHT22;7466;53.574;9.976;2023-04-03T00:10:38;0.80;99.90
14749;DHT22;7466;53.574;9.976;2023-04-03T00:13:06;0.70;99.90
14749;DHT22;7466;53.574;9.976;2023-04-03T00:15:34;0.70;99.90
14749;DHT22;7466;53.574;9.976;2023-04-03T00:18:02;0.80;99.90
14749;DHT22;7466;53.574;9.976;2023-04-03T00:20:29;0.80;99.90
14749;DHT22;7466;53.574;9.976;2023-04-03T00:22:58;0.80;99.90
14749;DHT22;7466;53.574;9.976;2023-04-03T00:25:25;0.80;99.90
14749;DHT22;7466;53.574;9.976;2023-04-03T00:27:53;0.70;99.90
14749;DHT22;7466;53.574;9.976;2023-04-03T00:30:21;0.80;99.90
14749;DHT22;7466;53.574;9.976;2023-04-03T00:32:49;0.70;99.90
14749;DHT22;7466;53.574;9.976;2023-04-03T00:35:20;0.70;99.90
14749;DHT22;7466;53.574;9.976;2023-04-03T00:37:50;0.70;99.90
14749;DHT22;7466;53.574;9.976;2023-04-03T00:40:20;0.70;99.90
14749;DHT22;7466;53.574;9.976;2023-04-03T00:42:49;0.60;99.90
14749;DHT22;7466;53.574;9.976;2023-04-03T00:45:29;0.60;99.90
14749;DHT22;7466;53.574;9.976;2023-04-03T00:47:57;0.70;99.90
14749;DHT22;7466;53.574;9.976;2023-04-03T00:50:26;0.80;99.90
14749;DHT22;7466;53.574;9.976;2023-04-03T00:52:54;0.80;99.90
14749;DHT22;7466;53.574;9.976;2023-04-03T00:55:22;0.80;99.90
14749;DHT22;7466;53.574;9.976;2023-04-03T00:57:56;0.70;99.90
14749;DHT22;7466;53.574;9.976;2023-04-03T01:00:26;0.70;99.90
14749;DHT22;7466;53.574;9.976;2023-04-03T01:02:53;0.70;99.90
14749;DHT22;7466;53.574;9.976;2023-04-03T01:05:23;0.60;99.90
14749;DHT22;7466;53.574;9.976;2023-04-03T01:07:51;0.70;99.90
14749;DHT22;7466;53.574;9.976;2023-04-03T01:10:20;0.60;99.90
14749;DHT22;7466;53.574;9.976;2023-04-03T01:12:49;0.60;99.90
14749;DHT22;7466;53.574;9.976;2023-04-03T01:15:18;0.60;99.90
14749;DHT22;7466;53.574;9.976;2023-04-03T01:17:48;0.60;99.90
14749;DHT22;7466;53.574;9.976;2023-04-03T01:20:36;0.60;99.90
14749;DHT22;7466;53.574;9.976;2023-04-03T01:23:20;0.60;99.90
14749;DHT22;7466;53.574;9.976;2023-04-03T01:25:51;0.60;99.90
14749;DHT22;7466;53.574;9.976;2023-04-03T01:28:21;0.50;99.90
14749;DHT22;7466;53.574;9.976;2023-04-03T01:30:51;0.50;99.90
14749;DHT22;7466;53.574;9.976;2023-04-03T01:33:21;0.50;99.90
14749;DHT22;7466;53.574;9.976;2023-04-03T01:35:47;0.40;99.90
14749;DHT22;7466;53.574;9.976;2023-04-03T01:38:14;0.40;99.90
14749;DHT22;7466;53.574;9.976;2023-04-03T01:40:41;0.40;99.90
14749;DHT22;7466;53.574;9.976;2023-04-03T01:43:08;0.40;99.90
14749;DHT22;7466;53.574;9.976;2023-04-03T01:45:36;0.40;99.90
14749;DHT22;7466;53.574;9.976;2023-04-03T01:48:03;0.30;99.90
14749;DHT22;7466;53.574;9.976;2023-04-03T01:50:31;0.30;99.90
14749;DHT22;7466;53.574;9.976;2023-04-03T01:52:58;0.30;99.90
14749;DHT22;7466;53.574;9.976;2023-04-03T01:55:25;0.30;99.90
14749;DHT22;7466;53.574;9.976;2023-04-03T01:57:52;0.30;99.90
14749;DHT22;7466;53.574;9.976;2023-04-03T02:00:19;0.20;99.90
14749;DHT22;7466;53.574;9.976;2023-04-03T02:02:47;0.30;99.90
14749;DHT22;7466;53.574;9.976;2023-04-03T02:05:14;0.40;99.90
14749;DHT22;7466;53.574;9.976;2023-04-03T02:07:42;0.40;99.90
14749;DHT22;7466;53.574;9.976;2023-04-03T02:10:09;0.40;99.90
14749;DHT22;7466;53.574;9.976;2023-04-03T02:12:36;0.40;99.90
14749;DHT22;7466;53.574;9.976;2023-04-03T02:15:04;0.30;99.90
14749;DHT22;7466;53.574;9.976;2023-04-03T02:17:31;0.30;99.90
14749;DHT22;7466;53.574;9.976;2023-04-03T02:19:58;0.30;99.90
14749;DHT22;7466;53.574;9.976;2023-04-03T02:22:25;0.30;99.90
14749;DHT22;7466;53.574;9.976;2023-04-03T02:24:54;0.30;99.90
14749;DHT22;7466;53.574;9.976;2023-04-03T02:27:21;0.20;99.90
14749;DHT22;7466;53.574;9.976;2023-04-03T02:29:47;0.20;99.90
14749;DHT22;7466;53.574;9.976;2023-04-03T02:32:15;0.10;99.90
14749;DHT22;7466;53.574;9.976;2023-04-03T02:34:41;0.10;99.90
14749;DHT22;7466;53.574;9.976;2023-04-03T02:37:08;0.10;99.90
14749;DHT22;7466;53.574;9.976;2023-04-03T02:39:35;0.20;99.90
14749;DHT22;7466;53.574;9.976;2023-04-03T02:42:03;0.20;99.90
14749;DHT22;7466;53.574;9.976;2023-04-03T02:44:30;0.20;99.90
14749;DHT22;7466;53.574;9.976;2023-04-03T02:46:57;0.10;99.90
14749;DHT22;7466;53.574;9.976;2023-04-03T02:49:24;0.10;99.90
14749;DHT22;7466;53.574;9.976;2023-04-03T02:51:51;0.10;99.90
14749;DHT22;7466;53.574;9.976;2023-04-03T02:54:18;0.00;99.90
14749;DHT22;7466;53.574;9.976;2023-04-03T02:56:45;0.10;99.90
14749;DHT22;7466;53.574;9.976;2023-04-03T02:59:13;0.00;99.90
14749;DHT22;7466;53.574;9.976;2023-04-03T03:01:40;0.00;99.90
14749;DHT22;7466;53.574;9.976;2023-04-03T03:04:07;0.00;99.90
14749;DHT22;7466;53.574;9.976;2023-04-03T03:06:34;-0.10;99.90
14749;DHT22;7466;53.574;9.976;2023-04-03T03:09:01;0.00;99.90
14749;DHT22;7466;53.574;9.976;2023-04-03T03:11:29;-0.10;99.90
14749;DHT22;7466;53.574;9.976;2023-04-03T03:13:56;-0.10;99.90
14749;DHT22;7466;53.574;9.976;2023-04-03T03:16:24;0.00;99.90
14749;DHT22;7466;53.574;9.976;2023-04-03T03:18:52;-0.10;99.90
14749;DHT22;7466;53.574;9.976;2023-04-03T03:21:18;-0.20;99.90
14749;DHT22;7466;53.574;9.976;2023-04-03T03:23:45;-0.20;99.90
14749;DHT22;7466;53.574;9.976;2023-04-03T03:26:12;-0.20;99.90
14749;DHT22;7466;53.574;9.976;2023-04-03T03:28:40;-0.20;99.90
14749;DHT22;7466;53.574;9.976;2023-04-03T03:31:08;-0.20;99.90
14749;DHT22;7466;53.574;9.976;2023-04-03T03:33:36;-0.20;99.90
14749;DHT22;7466;53.574;9.976;2023-04-03T03:36:04;-0.20;99.90
14749;DHT22;7466;53.574;9.976;2023-04-03T03:38:31;-0.20;99.90
14749;DHT22;7466;53.574;9.976;2023-04-03T03:40:58;-0.20;99.90
14749;DHT22;7466;53.574;9.976;2023-04-03T03:43:25;-0.20;99.90
14749;DHT22;7466;53.574;9.976;2023-04-03T03:45:52;-0.20;99.90
14749;DHT22;7466;53.574;9.976;2023-04-03T03:48:19;-0.20;99.90
14749;DHT22;7466;53.574;9.976;2023-04-03T03:50:48;-0.20;99.90
14749;DHT22;7466;53.574;9.976;2023-04-03T03:53:15;-0.20;99.90
14749;DHT22;7466;53.574;9.976;2023-04-03T03:55:42;-0.20;99.90
14749;DHT22;7466;53.574;9.976;2023-04-03T03:58:09;-0.30;99.90
14749;DHT22;7466;53.574;9.976;2023-04-03T04:00:36;-0.30;99.90
14749;DHT22;7466;53.574;9.976;2023-04-03T04:03:03;-0.40;99.90
14749;DHT22;7466;53.574;9.976;2023-04-03T04:05:30;-0.30;99.90
14749;DHT22;7466;53.574;9.976;2023-04-03T04:07:59;-0.40;99.90
14749;DHT22;7466;53.574;9.976;2023-04-03T04:10:27;-0.40;99.90
14749;DHT22;7466;53.574;9.976;2023-04-03T04:12:53;-0.40;99.90
14749;DHT22;7466;53.574;9.976;2023-04-03T04:15:20;-0.40;99.90
14749;DHT22;7466;53.574;9.976;2023-04-03T04:17:48;-0.40;99.90
14749;DHT22;7466;53.574;9.976;2023-04-03T04:20:15;-0.40;99.90
14749;DHT22;7466;53.574;9.976;2023-04-03T04:22:42;-0.40;99.90
14749;DHT22;7466;53.574;9.976;2023-04-03T04:25:10;-0.40;99.90
14749;DHT22;7466;53.574;9.976;2023-04-03T04:27:37;-0.40;99.90
14749;DHT22;7466;53.574;9.976;2023-04-03T04:30:05;-0.30;99.90
14749;DHT22;7466;53.574;9.976;2023-04-03T04:32:33;-0.30;99.90
14749;DHT22;7466;53.574;9.976;2023-04-03T04:35:00;-0.40;99.90
14749;DHT22;7466;53.574;9.976;2023-04-03T04:37:26;-0.40;99.90
14749;DHT22;7466;53.574;9.976;2023-04-03T04:39:53;-0.40;99.90
14749;DHT22;7466;53.574;9.976;2023-04-03T04:42:21;-0.40;99.90
14749;DHT22;7466;53.574;9.976;2023-04-03T04:44:48;-0.40;99.90
14749;DHT22;7466;53.574;9.976;2023-04-03T04:47:15;-0.40;99.90
14749;DHT22;7466;53.574;9.976;2023-04-03T04:49:42;-0.40;99.90
14749;DHT22;7466;53.574;9.976;2023-04-03T04:52:09;-0.40;99.90
14749;DHT22;7466;53.574;9.976;2023-04-03T04:54:35;-0.40;99.90
14749;DHT22;7466;53.574;9.976;2023-04-03T04:57:02;-0.40;99.90
14749;DHT22;7466;53.574;9.976;2023-04-03T04:59:31;-0.40;99.90
14749;DHT22;7466;53.574;9.976;2023-04-03T05:01:57;-0.30;99.90
14749;DHT22;7466;53.574;9.976;2023-04-03T05:04:24;-0.30;99.90
14749;DHT22;7466;53.574;9.976;2023-04-03T05:06:53;-0.30;99.90
14749;DHT22;7466;53.574;9.976;2023-04-03T05:09:20;-0.20;99.90
14749;DHT22;7466;53.574;9.976;2023-04-03T05:11:49;-0.20;99.90
14749;DHT22;7466;53.574;9.976;2023-04-03T05:14:19;-0.20;99.90
14749;DHT22;7466;53.574;9.976;2023-04-03T05:16:48;-0.30;99.90
14749;DHT22;7466;53.574;9.976;2023-04-03T05:19:18;-0.30;99.90
14749;DHT22;7466;53.574;9.976;2023-04-03T05:21:45;-0.30;99.90
14749;DHT22;7466;53.574;9.976;2023-04-03T05:24:12;-0.30;99.90
14749;DHT22;7466;53.574;9.976;2023-04-03T05:26:39;-0.20;99.90
14749;DHT22;7466;53.574;9.976;2023-04-03T05:29:06;-0.30;99.90
14749;DHT22;7466;53.574;9.976;2023-04-03T05:31:35;-0.20;99.90
14749;DHT22;7466;53.574;9.976;2023-04-03T05:34:03;-0.20;99.90
14749;DHT22;7466;53.574;9.976;2023-04-03T05:36:30;-0.20;99.90
14749;DHT22;7466;53.574;9.976;2023-04-03T05:38:57;-0.20;99.90
14749;DHT22;7466;53.574;9.976;2023-04-03T05:41:24;-0.10;99.90
14749;DHT22;7466;53.574;9.976;2023-04-03T05:43:51;0.00;99.90
14749;DHT22;7466;53.574;9.976;2023-04-03T05:46:19;0.00;99.90
14749;DHT22;7466;53.574;9.976;2023-04-03T05:48:46;0.00;99.90
14749;DHT22;7466;53.574;9.976;2023-04-03T05:51:17;0.00;99.90
14749;DHT22;7466;53.574;9.976;2023-04-03T05:53:45;0.10;99.90
14749;DHT22;7466;53.574;9.976;2023-04-03T05:56:12;0.20;99.90
14749;DHT22;7466;53.574;9.976;2023-04-03T05:58:39;0.20;99.90
14749;DHT22;7466;53.574;9.976;2023-04-03T06:01:06;0.30;99.90
14749;DHT22;7466;53.574;9.976;2023-04-03T06:03:33;0.40;99.90
14749;DHT22;7466;53.574;9.976;2023-04-03T06:06:03;0.50;99.90
14749;DHT22;7466;53.574;9.976;2023-04-03T06:08:31;0.60;99.90
14749;DHT22;7466;53.574;9.976;2023-04-03T06:10:59;0.70;99.90
14749;DHT22;7466;53.574;9.976;2023-04-03T06:13:27;0.80;99.90
14749;DHT22;7466;53.574;9.976;2023-04-03T06:15:54;0.90;99.90
14749;DHT22;7466;53.574;9.976;2023-04-03T06:18:21;1.10;99.90
14749;DHT22;7466;53.574;9.976;2023-04-03T06:20:49;1.20;99.90
14749;DHT22;7466;53.574;9.976;2023-04-03T06:23:15;1.40;99.90
14749;DHT22;7466;53.574;9.976;2023-04-03T06:25:44;1.50;99.90
14749;DHT22;7466;53.574;9.976;2023-04-03T06:28:11;1.60;99.90
14749;DHT22;7466;53.574;9.976;2023-04-03T06:30:38;1.70;99.90
14749;DHT22;7466;53.574;9.976;2023-04-03T06:33:06;1.80;99.90
14749;DHT22;7466;53.574;9.976;2023-04-03T06:35:33;2.10;99.90
14749;DHT22;7466;53.574;9.976;2023-04-03T06:38:03;2.20;99.90
14749;DHT22;7466;53.574;9.976;2023-04-03T06:40:39;2.30;99.90
14749;DHT22;7466;53.574;9.976;2023-04-03T06:43:08;2.50;99.90
14749;DHT22;7466;53.574;9.976;2023-04-03T06:45:35;2.60;99.90
14749;DHT22;7466;53.574;9.976;2023-04-03T06:48:02;2.70;99.90
14749;DHT22;7466;53.574;9.976;2023-04-03T06:50:28;2.90;99.90
14749;DHT22;7466;53.574;9.976;2023-04-03T06:52:55;3.00;99.90
14749;DHT22;7466;53.574;9.976;2023-04-03T06:55:22;3.20;99.90
14749;DHT22;7466;53.574;9.976;2023-04-03T06:57:49;3.30;99.90
14749;DHT22;7466;53.574;9.976;2023-04-03T07:00:22;3.50;99.90
14749;DHT22;7466;53.574;9.976;2023-04-03T07:02:48;3.60;99.90
14749;DHT22;7466;53.574;9.976;2023-04-03T07:08:35;3.70;99.90
14749;DHT22;7466;53.574;9.976;2023-04-03T07:11:03;3.80;99.90
14749;DHT22;7466;53.574;9.976;2023-04-03T07:13:31;4.00;99.90
14749;DHT22;7466;53.574;9.976;2023-04-03T07:16:00;4.20;99.90
14749;DHT22;7466;53.574;9.976;2023-04-03T07:18:32;4.40;99.90
14749;DHT22;7466;53.574;9.976;2023-04-03T07:20:59;4.50;99.90
14749;DHT22;7466;53.574;9.976;2023-04-03T07:23:29;4.60;99.90
14749;DHT22;7466;53.574;9.976;2023-04-03T07:25:56;4.50;99.90
14749;DHT22;7466;53.574;9.976;2023-04-03T07:28:23;4.80;99.90
14749;DHT22;7466;53.574;9.976;2023-04-03T07:30:52;4.90;99.90
14749;DHT22;7466;53.574;9.976;2023-04-03T07:33:29;5.10;99.90
14749;DHT22;7466;53.574;9.976;2023-04-03T07:35:56;5.00;99.90
14749;DHT22;7466;53.574;9.976;2023-04-03T07:38:23;5.00;99.90
14749;DHT22;7466;53.574;9.976;2023-04-03T07:40:51;4.80;99.90
14749;DHT22;7466;53.574;9.976;2023-04-03T07:43:20;4.70;99.90
14749;DHT22;7466;53.574;9.976;2023-04-03T07:45:48;4.90;99.90
14749;DHT22;7466;53.574;9.976;2023-04-03T07:48:17;5.00;99.90
14749;DHT22;7466;53.574;9.976;2023-04-03T07:50:46;5.20;99.90
14749;DHT22;7466;53.574;9.976;2023-04-03T07:53:16;5.30;99.90
14749;DHT22;7466;53.574;9.976;2023-04-03T07:55:46;5.00;99.90
14749;DHT22;7466;53.574;9.976;2023-04-03T07:58:16;5.10;99.90
14749;DHT22;7466;53.574;9.976;2023-04-03T08:00:44;5.10;99.90
14749;DHT22;7466;53.574;9.976;2023-04-03T08:03:11;5.00;99.90
14749;DHT22;7466;53.574;9.976;2023-04-03T08:05:39;5.20;99.90
14749;DHT22;7466;53.574;9.976;2023-04-03T08:08:08;5.40;99.90
14749;DHT22;7466;53.574;9.976;2023-04-03T08:10:35;5.60;99.90
14749;DHT22;7466;53.574;9.976;2023-04-03T08:13:02;5.80;99.90
14749;DHT22;7466;53.574;9.976;2023-04-03T08:15:30;5.50;99.90
14749;DHT22;7466;53.574;9.976;2023-04-03T08:17:58;5.70;99.90
14749;DHT22;7466;53.574;9.976;2023-04-03T08:20:24;5.60;99.90
14749;DHT22;7466;53.574;9.976;2023-04-03T08:22:52;5.60;99.90
14749;DHT22;7466;53.574;9.976;2023-04-03T08:25:20;5.80;99.90
14749;DHT22;7466;53.574;9.976;2023-04-03T08:27:58;5.70;99.90
14749;DHT22;7466;53.574;9.976;2023-04-03T08:30:25;5.40;99.90
14749;DHT22;7466;53.574;9.976;2023-04-03T08:32:51;5.60;99.90
14749;DHT22;7466;53.574;9.976;2023-04-03T08:35:21;5.80;99.90
14749;DHT22;7466;53.574;9.976;2023-04-03T08:37:48;5.80;99.90
14749;DHT22;7466;53.574;9.976;2023-04-03T08:40:16;5.80;99.90
14749;DHT22;7466;53.574;9.976;2023-04-03T08:42:54;5.80;99.90
14749;DHT22;7466;53.574;9.976;2023-04-03T08:45:37;5.90;99.90
14749;DHT22;7466;53.574;9.976;2023-04-03T08:48:06;6.10;99.90
14749;DHT22;7466;53.574;9.976;2023-04-03T08:50:38;6.00;99.90
14749;DHT22;7466;53.574;9.976;2023-04-03T08:53:14;5.90;99.90
14749;DHT22;7466;53.574;9.976;2023-04-03T08:55:45;6.30;99.90
14749;DHT22;7466;53.574;9.976;2023-04-03T08:58:16;6.20;99.90
14749;DHT22;7466;53.574;9.976;2023-04-03T09:00:47;6.20;99.90
14749;DHT22;7466;53.574;9.976;2023-04-03T09:03:17;6.20;99.90
14749;DHT22;7466;53.574;9.976;2023-04-03T09:05:48;6.80;99.90
14749;DHT22;7466;53.574;9.976;2023-04-03T09:08:22;7.40;99.90
14749;DHT22;7466;53.574;9.976;2023-04-03T09:10:57;7.70;99.90
14749;DHT22;7466;53.574;9.976;2023-04-03T09:13:31;7.70;99.90
14749;DHT22;7466;53.574;9.976;2023-04-03T09:16:02;8.40;99.90
14749;DHT22;7466;53.574;9.976;2023-04-03T09:18:41;8.50;99.90
14749;DHT22;7466;53.574;9.976;2023-04-03T09:21:19;8.90;99.90
14749;DHT22;7466;53.574;9.976;2023-04-03T09:23:50;8.90;99.90
14749;DHT22;7466;53.574;9.976;2023-04-03T09:26:20;8.50;99.90
14749;DHT22;7466;53.574;9.976;2023-04-03T09:28:52;8.80;99.90
14749;DHT22;7466;53.574;9.976;2023-04-03T09:31:23;9.70;98.90
14749;DHT22;7466;53.574;9.976;2023-04-03T09:33:58;9.90;95.80
14749;DHT22;7466;53.574;9.976;2023-04-03T09:36:41;10.30;97.30
14749;DHT22;7466;53.574;9.976;2023-04-03T09:39:12;10.60;84.10
14749;DHT22;7466;53.574;9.976;2023-04-03T09:41:40;10.50;80.20
14749;DHT22;7466;53.574;9.976;2023-04-03T09:44:21;9.80;80.10
14749;DHT22;7466;53.574;9.976;2023-04-03T09:46:48;9.50;91.90
14749;DHT22;7466;53.574;9.976;2023-04-03T09:49:15;9.10;83.50
14749;DHT22;7466;53.574;9.976;2023-04-03T09:51:42;8.80;94.10
14749;DHT22;7466;53.574;9.976;2023-04-03T09:54:36;9.60;92.00
14749;DHT22;7466;53.574;9.976;2023-04-03T09:57:08;9.50;87.20
14749;DHT22;7466;53.574;9.976;2023-04-03T09:59:45;9.30;88.40
14749;DHT22;7466;53.574;9.976;2023-04-03T10:02:32;9.90;84.30
14749;DHT22;7466;53.574;9.976;2023-04-03T10:05:01;9.10;93.40
14749;DHT22;7466;53.574;9.976;2023-04-03T10:07:33;10.50;83.30
14749;DHT22;7466;53.574;9.976;2023-04-03T10:10:19;10.70;74.70
14749;DHT22;7466;53.574;9.976;2023-04-03T10:12:48;10.30;69.10
14749;DHT22;7466;53.574;9.976;2023-04-03T10:15:17;10.20;66.50
14749;DHT22;7466;53.574;9.976;2023-04-03T10:17:53;10.80;64.90
14749;DHT22;7466;53.574;9.976;2023-04-03T10:20:33;10.70;66.00
14749;DHT22;7466;53.574;9.976;2023-04-03T10:23:15;10.20;65.80
14749;DHT22;7466;53.574;9.976;2023-04-03T10:25:54;10.30;64.30
14749;DHT22;7466;53.574;9.976;2023-04-03T10:28:29;9.10;64.70
14749;DHT22;7466;53.574;9.976;2023-04-03T10:31:05;8.90;66.10
14749;DHT22;7466;53.574;9.976;2023-04-03T10:33:43;9.40;67.90
14749;DHT22;7466;53.574;9.976;2023-04-03T10:36:19;10.50;66.40
14749;DHT22;7466;53.574;9.976;2023-04-03T10:38:55;11.30;62.50
14749;DHT22;7466;53.574;9.976;2023-04-03T10:41:29;11.40;59.20
14749;DHT22;7466;53.574;9.976;2023-04-03T10:44:05;10.20;59.20
14749;DHT22;7466;53.574;9.976;2023-04-03T10:46:38;10.00;60.50
14749;DHT22;7466;53.574;9.976;2023-04-03T10:49:18;10.30;62.20
14749;DHT22;7466;53.574;9.976;2023-04-03T10:51:50;11.00;60.30
14749;DHT22;7466;53.574;9.976;2023-04-03T10:54:24;10.20;60.90
14749;DHT22;7466;53.574;9.976;2023-04-03T10:56:54;11.20;59.90
14749;DHT22;7466;53.574;9.976;2023-04-03T10:59:26;11.40;58.60
14749;DHT22;7466;53.574;9.976;2023-04-03T11:02:00;11.70;57.40
14749;DHT22;7466;53.574;9.976;2023-04-03T11:04:31;11.50;57.70
14749;DHT22;7466;53.574;9.976;2023-04-03T11:07:02;10.30;60.30
14749;DHT22;7466;53.574;9.976;2023-04-03T11:09:33;10.30;63.90
14749;DHT22;7466;53.574;9.976;2023-04-03T11:12:05;11.10;63.60
14749;DHT22;7466;53.574;9.976;2023-04-03T11:14:36;11.40;61.80
14749;DHT22;7466;53.574;9.976;2023-04-03T11:17:14;12.40;60.50
14749;DHT22;7466;53.574;9.976;2023-04-03T11:19:47;11.80;62.00
14749;DHT22;7466;53.574;9.976;2023-04-03T11:22:21;11.60;62.90
14749;DHT22;7466;53.574;9.976;2023-04-03T11:24:56;11.00;61.80
14749;DHT22;7466;53.574;9.976;2023-04-03T11:27:25;11.30;65.00
14749;DHT22;7466;53.574;9.976;2023-04-03T11:29:56;11.10;65.10
14749;DHT22;7466;53.574;9.976;2023-04-03T11:32:40;11.20;64.80
14749;DHT22;7466;53.574;9.976;2023-04-03T11:35:11;9.40;67.10
14749;DHT22;7466;53.574;9.976;2023-04-03T11:37:40;9.60;71.90
14749;DHT22;7466;53.574;9.976;2023-04-03T11:40:21;9.10;72.60
14749;DHT22;7466;53.574;9.976;2023-04-03T11:42:51;8.80;81.00
14749;DHT22;7466;53.574;9.976;2023-04-03T11:45:29;9.50;79.30
14749;DHT22;7466;53.574;9.976;2023-04-03T11:48:00;10.10;80.90
14749;DHT22;7466;53.574;9.976;2023-04-03T11:50:41;11.20;72.50
14749;DHT22;7466;53.574;9.976;2023-04-03T11:53:34;12.20;66.30
14749;DHT22;7466;53.574;9.976;2023-04-03T11:59:23;11.40;63.90
14749;DHT22;7466;53.574;9.976;2023-04-03T12:01:51;11.00;70.10
14749;DHT22;7466;53.574;9.976;2023-04-03T12:04:21;11.00;70.50
14749;DHT22;7466;53.574;9.976;2023-04-03T12:07:13;11.00;71.40
14749;DHT22;7466;53.574;9.976;2023-04-03T12:10:13;11.60;66.20
14749;DHT22;7466;53.574;9.976;2023-04-03T12:12:42;12.30;63.10
14749;DHT22;7466;53.574;9.976;2023-04-03T12:15:22;12.40;61.50
14749;DHT22;7466;53.574;9.976;2023-04-03T12:17:50;11.90;62.60
14749;DHT22;7466;53.574;9.976;2023-04-03T12:20:55;13.50;60.20
14749;DHT22;7466;53.574;9.976;2023-04-03T12:23:32;13.70;57.90
14749;DHT22;7466;53.574;9.976;2023-04-03T12:26:02;13.30;56.50
14749;DHT22;7466;53.574;9.976;2023-04-03T12:28:35;13.40;56.70
14749;DHT22;7466;53.574;9.976;2023-04-03T12:31:04;12.90;56.10
14749;DHT22;7466;53.574;9.976;2023-04-03T12:33:43;13.20;56.30
14749;DHT22;7466;53.574;9.976;2023-04-03T12:36:23;11.60;58.10
14749;DHT22;7466;53.574;9.976;2023-04-03T12:39:02;12.00;58.80
14749;DHT22;7466;53.574;9.976;2023-04-03T12:41:41;12.10;59.40
14749;DHT22;7466;53.574;9.976;2023-04-03T12:44:35;11.20;58.80
14749;DHT22;7466;53.574;9.976;2023-04-03T12:47:16;11.40;60.90
14749;DHT22;7466;53.574;9.976;2023-04-03T12:49:49;12.40;60.90
14749;DHT22;7466;53.574;9.976;2023-04-03T12:52:54;12.30;60.20
14749;DHT22;7466;53.574;9.976;2023-04-03T12:55:22;11.80;59.30
14749;DHT22;7466;53.574;9.976;2023-04-03T12:57:49;10.10;60.70
14749;DHT22;7466;53.574;9.976;2023-04-03T13:00:29;9.40;63.80
14749;DHT22;7466;53.574;9.976;2023-04-03T13:02:58;10.80;64.50
14749;DHT22;7466;53.574;9.976;2023-04-03T13:05:25;11.30;60.10
14749;DHT22;7466;53.574;9.976;2023-04-03T13:07:59;11.30;59.80
14749;DHT22;7466;53.574;9.976;2023-04-03T13:10:29;11.40;60.30
14749;DHT22;7466;53.574;9.976;2023-04-03T13:13:07;12.20;60.20
14749;DHT22;7466;53.574;9.976;2023-04-03T13:15:42;13.30;57.70
14749;DHT22;7466;53.574;9.976;2023-04-03T13:18:25;12.90;53.60
14749;DHT22;7466;53.574;9.976;2023-04-03T13:20:53;13.30;56.30
14749;DHT22;7466;53.574;9.976;2023-04-03T13:23:25;13.90;54.20
14749;DHT22;7466;53.574;9.976;2023-04-03T13:25:52;14.90;52.70
14749;DHT22;7466;53.574;9.976;2023-04-03T13:28:22;15.50;51.40
14749;DHT22;7466;53.574;9.976;2023-04-03T13:31:01;12.90;51.70
14749;DHT22;7466;53.574;9.976;2023-04-03T13:33:32;14.00;53.30
14749;DHT22;7466;53.574;9.976;2023-04-03T13:36:05;14.40;53.00
14749;DHT22;7466;53.574;9.976;2023-04-03T13:38:35;15.30;50.20
14749;DHT22;7466;53.574;9.976;2023-04-03T13:41:04;14.20;49.60
14749;DHT22;7466;53.574;9.976;2023-04-03T13:43:34;12.80;52.20
14749;DHT22;7466;53.574;9.976;2023-04-03T13:46:20;11.80;54.00
14749;DHT22;7466;53.574;9.976;2023-04-03T13:48:52;12.60;54.80
14749;DHT22;7466;53.574;9.976;2023-04-03T13:51:22;11.80;55.00
14749;DHT22;7466;53.574;9.976;2023-04-03T13:53:53;11.50;55.90
14749;DHT22;7466;53.574;9.976;2023-04-03T13:56:27;10.50;57.10
14749;DHT22;7466;53.574;9.976;2023-04-03T13:59:04;9.60;59.50
14749;DHT22;7466;53.574;9.976;2023-04-03T14:01:38;9.10;61.00
14749;DHT22;7466;53.574;9.976;2023-04-03T14:04:16;9.50;63.50
14749;DHT22;7466;53.574;9.976;2023-04-03T14:06:44;8.90;63.60
14749;DHT22;7466;53.574;9.976;2023-04-03T14:09:12;8.50;62.10
14749;DHT22;7466;53.574;9.976;2023-04-03T14:11:40;8.40;61.60
14749;DHT22;7466;53.574;9.976;2023-04-03T14:14:13;8.30;60.80
14749;DHT22;7466;53.574;9.976;2023-04-03T14:16:43;8.60;63.70
14749;DHT22;7466;53.574;9.976;2023-04-03T14:19:18;9.00;65.60
14749;DHT22;7466;53.574;9.976;2023-04-03T14:21:50;8.90;70.50
14749;DHT22;7466;53.574;9.976;2023-04-03T14:24:19;8.60;69.90
14749;DHT22;7466;53.574;9.976;2023-04-03T14:26:47;8.70;71.70
14749;DHT22;7466;53.574;9.976;2023-04-03T14:29:14;8.40;69.20
14749;DHT22;7466;53.574;9.976;2023-04-03T14:31:43;8.40;66.90
14749;DHT22;7466;53.574;9.976;2023-04-03T14:34:10;8.10;72.10
14749;DHT22;7466;53.574;9.976;2023-04-03T14:36:42;8.50;70.30
14749;DHT22;7466;53.574;9.976;2023-04-03T14:39:15;8.60;70.10
14749;DHT22;7466;53.574;9.976;2023-04-03T14:41:44;8.50;70.50
14749;DHT22;7466;53.574;9.976;2023-04-03T14:44:11;8.20;71.10
14749;DHT22;7466;53.574;9.976;2023-04-03T14:46:40;8.20;75.00
14749;DHT22;7466;53.574;9.976;2023-04-03T14:49:13;7.90;77.30
14749;DHT22;7466;53.574;9.976;2023-04-03T14:51:40;8.00;79.30
14749;DHT22;7466;53.574;9.976;2023-04-03T14:54:13;8.00;81.30
14749;DHT22;7466;53.574;9.976;2023-04-03T14:56:40;8.20;81.20
14749;DHT22;7466;53.574;9.976;2023-04-03T14:59:11;7.90;78.20
14749;DHT22;7466;53.574;9.976;2023-04-03T15:01:38;7.60;82.70
14749;DHT22;7466;53.574;9.976;2023-04-03T15:04:10;7.90;86.20
14749;DHT22;7466;53.574;9.976;2023-04-03T15:06:37;7.90;85.30
14749;DHT22;7466;53.574;9.976;2023-04-03T15:09:04;7.80;85.40
14749;DHT22;7466;53.574;9.976;2023-04-03T15:11:31;7.80;85.50
14749;DHT22;7466;53.574;9.976;2023-04-03T15:13:58;8.00;88.70
14749;DHT22;7466;53.574;9.976;2023-04-03T15:16:26;8.00;89.50
14749;DHT22;7466;53.574;9.976;2023-04-03T15:18:53;7.90;88.50
14749;DHT22;7466;53.574;9.976;2023-04-03T15:21:20;8.10;88.30
14749;DHT22;7466;53.574;9.976;2023-04-03T15:23:47;8.00;87.80
14749;DHT22;7466;53.574;9.976;2023-04-03T15:26:14;7.90;92.30
14749;DHT22;7466;53.574;9.976;2023-04-03T15:28:44;8.20;99.90
14749;DHT22;7466;53.574;9.976;2023-04-03T15:31:11;8.00;92.40
14749;DHT22;7466;53.574;9.976;2023-04-03T15:33:40;7.80;94.10
14749;DHT22;7466;53.574;9.976;2023-04-03T15:36:07;7.70;98.20
14749;DHT22;7466;53.574;9.976;2023-04-03T15:38:37;7.60;99.90
14749;DHT22;7466;53.574;9.976;2023-04-03T15:41:04;7.50;99.90
14749;DHT22;7466;53.574;9.976;2023-04-03T15:43:32;7.60;99.90
14749;DHT22;7466;53.574;9.976;2023-04-03T15:46:01;7.70;99.90
14749;DHT22;7466;53.574;9.976;2023-04-03T15:48:28;7.50;99.90
14749;DHT22;7466;53.574;9.976;2023-04-03T15:50:57;7.80;99.90
14749;DHT22;7466;53.574;9.976;2023-04-03T15:53:24;7.80;99.90
14749;DHT22;7466;53.574;9.976;2023-04-03T15:55:50;7.90;99.70
14749;DHT22;7466;53.574;9.976;2023-04-03T15:58:17;7.80;99.10
14749;DHT22;7466;53.574;9.976;2023-04-03T16:00:44;7.60;99.90
14749;DHT22;7466;53.574;9.976;2023-04-03T16:03:15;7.30;99.90
14749;DHT22;7466;53.574;9.976;2023-04-03T16:05:43;7.30;99.90
14749;DHT22;7466;53.574;9.976;2023-04-03T16:08:11;7.40;99.90
14749;DHT22;7466;53.574;9.976;2023-04-03T16:10:40;7.30;99.90
14749;DHT22;7466;53.574;9.976;2023-04-03T16:13:08;7.20;99.90
14749;DHT22;7466;53.574;9.976;2023-04-03T16:15:35;7.30;99.90
14749;DHT22;7466;53.574;9.976;2023-04-03T16:18:03;7.40;99.90
14749;DHT22;7466;53.574;9.976;2023-04-03T16:20:30;7.10;99.90